createdAt,value
2023-04-08T00:01:36.599Z,4.07
2023-04-08T00:04:03.883Z,2.30
2023-04-08T00:06:31.681Z,3.30
2023-04-08T00:08:58.784Z,2.67
2023-04-08T00:11:25.958Z,3.90
2023-04-08T00:13:53.142Z,2.50
2023-04-08T00:16:20.535Z,4.47
2023-04-08T00:18:48.002Z,3.03
2023-04-08T00:21:18.037Z,2.50
2023-04-08T00:23:45.404Z,4.63
2023-04-08T00:26:12.522Z,3.73
2023-04-08T00:28:41.242Z,1.80
2023-04-08T00:31:08.556Z,3.30
2023-04-08T00:33:36.720Z,2.20
2023-04-08T00:36:03.985Z,2.73
2023-04-08T00:38:31.119Z,3.57
2023-04-08T00:40:58.668Z,3.10
2023-04-08T00:43:26.137Z,3.80
2023-04-08T00:45:53.279Z,4.37
2023-04-08T00:48:20.654Z,3.77
2023-04-08T00:50:48.126Z,3.37
2023-04-08T00:53:19.605Z,4.33
2023-04-08T00:55:46.730Z,2.40
2023-04-08T00:58:14.710Z,5.20
2023-04-08T01:00:54.914Z,3.60
2023-04-08T01:03:53.236Z,2.50
2023-04-08T01:06:42.841Z,2.20
2023-04-08T01:09:12.547Z,2.70
2023-04-08T01:11:44.775Z,4.30
2023-04-08T01:14:17.483Z,2.27
2023-04-08T01:16:46.230Z,3.30
2023-04-08T01:19:27.541Z,3.10
2023-04-08T01:22:05.730Z,3.07
2023-04-08T01:24:42.942Z,3.30
2023-04-08T01:27:12.746Z,2.87
2023-04-08T01:29:42.063Z,4.00
2023-04-08T01:32:11.761Z,3.07
2023-04-08T01:34:41.649Z,2.33
2023-04-08T01:37:09.206Z,2.37
2023-04-08T01:39:38.680Z,2.37
2023-04-08T01:42:06.096Z,1.20
2023-04-08T01:44:34.756Z,2.27
2023-04-08T01:47:03.572Z,1.60
2023-04-08T01:49:32.039Z,2.40
2023-04-08T01:52:02.030Z,2.60
2023-04-08T01:54:30.062Z,2.60
2023-04-08T01:56:59.471Z,3.90
2023-04-08T01:59:34.759Z,2.30
2023-04-08T02:02:06.996Z,2.20
2023-04-08T02:04:36.389Z,2.30
2023-04-08T02:07:05.954Z,3.00
2023-04-08T02:09:33.060Z,2.03
2023-04-08T02:12:00.125Z,1.73
2023-04-08T02:14:28.512Z,2.90
2023-04-08T02:17:24.812Z,1.30
2023-04-08T02:20:30.506Z,2.10
2023-04-08T02:23:10.880Z,2.90
2023-04-08T02:25:41.598Z,3.43
2023-04-08T02:28:11.767Z,3.47
2023-04-08T02:30:48.976Z,2.17
2023-04-08T02:33:22.890Z,2.80
2023-04-08T02:35:54.984Z,2.80
2023-04-08T02:38:24.216Z,2.30
2023-04-08T02:40:51.762Z,1.40
2023-04-08T02:43:18.995Z,2.50
2023-04-08T02:45:46.472Z,2.03
2023-04-08T02:48:15.382Z,2.30
2023-04-08T02:50:42.523Z,2.47
2023-04-08T02:53:10.003Z,2.00
2023-04-08T02:55:38.096Z,2.23
2023-04-08T02:58:05.444Z,2.20
2023-04-08T03:00:32.575Z,2.60
2023-04-08T03:03:00.000Z,2.33
2023-04-08T03:05:27.623Z,2.60
2023-04-08T03:07:54.740Z,2.50
2023-04-08T03:10:21.852Z,2.23
2023-04-08T03:12:48.982Z,2.67
2023-04-08T03:15:16.069Z,5.43
2023-04-08T03:17:43.361Z,2.43
2023-04-08T03:20:11.011Z,2.43
2023-04-08T03:22:38.232Z,1.70
2023-04-08T03:25:06.149Z,2.97
2023-04-08T03:27:33.255Z,3.17
2023-04-08T03:30:00.352Z,2.30
2023-04-08T03:32:27.761Z,2.87
2023-04-08T03:34:54.894Z,1.20
2023-04-08T03:37:21.981Z,2.07
2023-04-08T03:39:49.091Z,2.03
2023-04-08T03:42:16.160Z,2.73
2023-04-08T03:44:43.277Z,3.57
2023-04-08T03:47:10.530Z,1.90
2023-04-08T03:49:37.669Z,1.90
2023-04-08T03:52:04.877Z,2.57
2023-04-08T03:54:31.999Z,1.53
2023-04-08T03:56:59.052Z,2.20
2023-04-08T03:59:26.570Z,1.50
2023-04-08T04:01:53.895Z,2.70
2023-04-08T04:04:21.301Z,3.20
2023-04-08T04:06:48.787Z,1.60
2023-04-08T04:09:16.870Z,1.50
2023-04-08T04:11:44.090Z,1.57
2023-04-08T04:14:11.185Z,2.73
2023-04-08T04:16:38.546Z,3.50
2023-04-08T04:19:05.771Z,2.67
2023-04-08T04:21:33.297Z,2.27
2023-04-08T04:24:00.462Z,2.20
2023-04-08T04:26:27.594Z,2.23
2023-04-08T04:28:54.710Z,1.90
2023-04-08T04:31:24.039Z,2.60
2023-04-08T04:33:51.171Z,2.77
2023-04-08T04:36:18.460Z,2.10
2023-04-08T04:38:47.772Z,2.57
2023-04-08T04:41:17.006Z,1.77
2023-04-08T04:43:44.190Z,1.93
2023-04-08T04:46:11.495Z,1.73
2023-04-08T04:48:38.660Z,1.97
2023-04-08T04:51:07.516Z,2.60
2023-04-08T04:53:34.838Z,2.70
2023-04-08T04:56:02.239Z,1.60
2023-04-08T04:58:30.731Z,2.37
2023-04-08T05:00:58.166Z,2.17
2023-04-08T05:03:25.471Z,2.33
2023-04-08T05:05:54.665Z,2.43
2023-04-08T05:08:22.356Z,2.63
2023-04-08T05:10:52.577Z,2.60
2023-04-08T05:13:19.660Z,1.87
2023-04-08T05:15:46.831Z,1.00
2023-04-08T05:18:14.369Z,2.50
2023-04-08T05:20:41.596Z,2.83
2023-04-08T05:23:08.968Z,2.63
2023-04-08T05:25:36.394Z,2.07
2023-04-08T05:28:04.405Z,2.00
2023-04-08T05:30:31.579Z,2.27
2023-04-08T05:33:00.366Z,1.60
2023-04-08T05:35:28.787Z,2.40
2023-04-08T05:37:56.113Z,2.80
2023-04-08T05:40:23.426Z,2.37
2023-04-08T05:42:50.655Z,2.33
2023-04-08T05:45:17.862Z,2.50
2023-04-08T05:47:45.017Z,2.47
2023-04-08T05:50:12.420Z,1.67
2023-04-08T05:52:46.363Z,2.43
2023-04-08T05:55:14.890Z,1.87
2023-04-08T05:57:42.425Z,3.80
2023-04-08T06:00:11.184Z,3.20
2023-04-08T06:02:38.985Z,2.10
2023-04-08T06:05:06.988Z,1.63
2023-04-08T06:07:34.612Z,1.97
2023-04-08T06:10:02.826Z,3.57
2023-04-08T06:12:30.055Z,2.93
2023-04-08T06:14:57.326Z,2.13
2023-04-08T06:17:24.654Z,2.07
2023-04-08T06:19:51.817Z,1.93
2023-04-08T06:22:18.945Z,2.27
2023-04-08T06:24:48.322Z,2.77
2023-04-08T06:27:16.525Z,2.07
2023-04-08T06:29:43.659Z,4.87
2023-04-08T06:32:11.461Z,2.30
2023-04-08T06:34:38.699Z,3.37
2023-04-08T06:37:06.548Z,3.10
2023-04-08T06:39:34.149Z,2.47
2023-04-08T06:42:01.658Z,2.50
2023-04-08T06:44:58.603Z,2.57
2023-04-08T06:47:25.946Z,1.87
2023-04-08T06:49:54.348Z,3.13
2023-04-08T06:52:21.675Z,2.07
2023-04-08T06:54:48.734Z,2.27
2023-04-08T06:57:15.925Z,2.03
2023-04-08T06:59:43.070Z,2.20
2023-04-08T07:02:10.274Z,2.23
2023-04-08T07:04:37.843Z,2.93
2023-04-08T07:07:04.927Z,2.97
2023-04-08T07:09:32.650Z,1.97
2023-04-08T07:11:59.996Z,1.33
2023-04-08T07:14:27.165Z,2.33
2023-04-08T07:16:54.377Z,1.60
2023-04-08T07:19:22.709Z,1.70
2023-04-08T07:21:50.305Z,3.17
2023-04-08T07:24:17.408Z,2.00
2023-04-08T07:26:44.844Z,1.90
2023-04-08T07:29:11.947Z,2.40
2023-04-08T07:31:39.037Z,2.73
2023-04-08T07:34:06.133Z,3.97
2023-04-08T07:36:33.231Z,2.10
2023-04-08T07:39:00.492Z,2.37
2023-04-08T07:41:27.580Z,1.77
2023-04-08T07:43:54.717Z,2.70
2023-04-08T07:46:21.825Z,2.60
2023-04-08T07:48:49.147Z,3.07
2023-04-08T07:51:16.466Z,2.83
2023-04-08T07:53:47.990Z,2.30
2023-04-08T07:56:18.351Z,1.77
2023-04-08T07:58:47.428Z,2.20
2023-04-08T08:01:23.044Z,2.53
2023-04-08T08:03:52.853Z,1.53
2023-04-08T08:06:20.934Z,3.07
2023-04-08T08:08:48.117Z,2.10
2023-04-08T08:11:15.464Z,2.90
2023-04-08T08:13:42.721Z,2.97
2023-04-08T08:16:11.713Z,2.90
2023-04-08T08:18:40.620Z,2.33
2023-04-08T08:21:08.796Z,2.30
2023-04-08T08:23:37.474Z,2.97
2023-04-08T08:26:10.538Z,1.50
2023-04-08T08:28:41.258Z,1.97
2023-04-08T08:31:08.495Z,4.57
2023-04-08T08:33:36.083Z,3.60
2023-04-08T08:36:05.352Z,3.10
2023-04-08T08:38:32.733Z,2.63
2023-04-08T08:41:01.589Z,2.10
2023-04-08T08:43:29.873Z,3.10
2023-04-08T08:45:56.991Z,2.47
2023-04-08T08:48:24.202Z,2.33
2023-04-08T08:50:51.840Z,2.30
2023-04-08T08:53:19.798Z,1.87
2023-04-08T08:58:17.043Z,3.77
2023-04-08T09:00:45.066Z,1.30
2023-04-08T09:03:21.919Z,2.10
2023-04-08T09:06:00.785Z,1.73
2023-04-08T09:08:36.023Z,2.80
2023-04-08T09:11:19.219Z,1.13
2023-04-08T09:13:47.301Z,1.90
2023-04-08T09:16:18.090Z,1.80
2023-04-08T09:18:48.702Z,1.77
2023-04-08T09:21:18.000Z,1.90
2023-04-08T09:23:48.945Z,1.13
2023-04-08T09:26:19.798Z,3.10
2023-04-08T09:29:11.449Z,3.10
2023-04-08T09:31:41.924Z,1.00
2023-04-08T09:34:19.540Z,2.00
2023-04-08T09:36:47.357Z,2.57
2023-04-08T09:39:14.651Z,1.60
2023-04-08T09:41:44.185Z,2.60
2023-04-08T09:44:12.288Z,2.50
2023-04-08T09:46:51.503Z,1.83
2023-04-08T09:50:07.052Z,1.73
2023-04-08T09:52:45.231Z,2.13
2023-04-08T09:55:22.863Z,2.80
2023-04-08T09:58:01.458Z,2.37
2023-04-08T10:00:51.022Z,2.00
2023-04-08T10:03:40.473Z,1.40
2023-04-08T10:06:11.345Z,1.13
2023-04-08T10:08:38.775Z,1.07
2023-04-08T10:11:06.449Z,1.07
2023-04-08T10:13:34.588Z,0.80
2023-04-08T10:16:20.082Z,1.20
2023-04-08T10:18:47.277Z,1.40
2023-04-08T10:21:39.690Z,1.10
2023-04-08T10:24:11.745Z,0.93
2023-04-08T10:26:45.143Z,1.00
2023-04-08T10:29:18.414Z,1.20
2023-04-08T10:31:52.907Z,1.07
2023-04-08T10:34:23.593Z,1.10
2023-04-08T10:36:50.689Z,1.30
2023-04-08T10:39:18.130Z,1.80
2023-04-08T10:41:47.141Z,0.83
2023-04-08T10:44:23.050Z,0.90
2023-04-08T10:46:52.038Z,1.40
2023-04-08T10:49:20.041Z,0.97
2023-04-08T10:51:47.947Z,1.30
2023-04-08T10:54:18.219Z,0.70
2023-04-08T10:56:53.560Z,1.10
2023-04-08T10:59:34.898Z,1.07
2023-04-08T11:02:02.609Z,2.03
2023-04-08T11:04:30.062Z,0.90
2023-04-08T11:06:58.307Z,1.37
2023-04-08T11:09:25.381Z,0.80
2023-04-08T11:11:53.784Z,1.27
2023-04-08T11:14:22.482Z,0.80
2023-04-08T11:16:49.876Z,1.00
2023-04-08T11:19:17.018Z,1.70
2023-04-08T11:21:44.198Z,1.37
2023-04-08T11:24:13.353Z,1.50
2023-04-08T11:26:42.787Z,0.90
2023-04-08T11:29:16.872Z,1.90
2023-04-08T11:31:44.768Z,1.33
2023-04-08T11:34:12.236Z,1.37
2023-04-08T11:36:41.683Z,1.87
2023-04-08T11:39:12.415Z,1.87
2023-04-08T11:41:40.658Z,1.40
2023-04-08T11:44:08.672Z,1.93
2023-04-08T11:46:36.669Z,2.00
2023-04-08T11:49:10.104Z,2.03
2023-04-08T11:51:59.315Z,1.80
2023-04-08T11:54:32.374Z,2.40
2023-04-08T11:57:00.966Z,2.30
2023-04-08T11:59:29.574Z,2.33
2023-04-08T12:01:57.419Z,3.73
2023-04-08T12:04:25.020Z,2.97
2023-04-08T12:06:52.487Z,1.80
2023-04-08T12:09:19.694Z,2.27
2023-04-08T12:11:46.843Z,1.97
2023-04-08T12:14:15.280Z,1.87
2023-04-08T12:16:42.726Z,1.33
2023-04-08T12:19:09.887Z,2.00
2023-04-08T12:21:38.249Z,2.37
2023-04-08T12:24:05.550Z,3.63
2023-04-08T12:26:32.690Z,2.67
2023-04-08T12:28:59.814Z,1.60
2023-04-08T12:31:28.437Z,2.23
2023-04-08T12:33:55.626Z,1.70
2023-04-08T12:36:22.731Z,2.33
2023-04-08T12:38:50.077Z,2.73
2023-04-08T12:41:17.489Z,2.13
2023-04-08T12:43:44.775Z,2.13
2023-04-08T12:46:12.916Z,2.37
2023-04-08T12:48:40.844Z,1.40
2023-04-08T12:51:10.284Z,1.77
2023-04-08T12:53:37.531Z,1.93
2023-04-08T12:56:05.200Z,2.20
2023-04-08T12:58:32.272Z,1.73
2023-04-08T13:00:59.387Z,1.83
2023-04-08T13:03:28.501Z,2.00
2023-04-08T13:05:56.670Z,2.00
2023-04-08T13:08:23.778Z,2.10
2023-04-08T13:10:51.166Z,1.20
2023-04-08T13:13:18.690Z,1.63
2023-04-08T13:15:45.798Z,2.20
2023-04-08T13:18:13.174Z,2.60
2023-04-08T13:20:40.303Z,2.07
2023-04-08T13:23:07.421Z,1.90
2023-04-08T13:25:34.535Z,2.03
2023-04-08T13:28:01.634Z,2.10
2023-04-08T13:30:28.764Z,2.00
2023-04-08T13:32:56.278Z,1.57
2023-04-08T13:35:23.575Z,2.00
2023-04-08T13:37:50.655Z,2.37
2023-04-08T13:40:18.147Z,2.30
2023-04-08T13:42:45.300Z,2.13
2023-04-08T13:45:12.390Z,2.23
2023-04-08T13:47:39.554Z,2.33
2023-04-08T13:50:10.099Z,2.00
2023-04-08T13:52:37.264Z,1.57
2023-04-08T13:55:04.906Z,2.10
2023-04-08T13:57:32.008Z,3.00
2023-04-08T13:59:59.100Z,1.90
2023-04-08T14:02:26.633Z,2.47
2023-04-08T14:04:53.944Z,3.23
2023-04-08T14:07:21.151Z,2.77
2023-04-08T14:09:48.218Z,2.30
2023-04-08T14:12:15.504Z,2.13
2023-04-08T14:14:42.578Z,2.80
2023-04-08T14:17:09.781Z,3.70
2023-04-08T14:19:36.986Z,2.20
2023-04-08T14:22:04.077Z,2.13
2023-04-08T14:24:31.172Z,1.90
2023-04-08T14:26:58.330Z,1.63
2023-04-08T14:29:27.288Z,2.00
2023-04-08T14:31:54.835Z,2.83
2023-04-08T14:34:22.252Z,3.67
2023-04-08T14:36:49.356Z,2.27
2023-04-08T14:39:16.504Z,5.00
2023-04-08T14:41:43.755Z,3.80
2023-04-08T14:44:10.878Z,4.50
2023-04-08T14:46:38.437Z,3.17
2023-04-08T14:49:07.132Z,2.97
2023-04-08T14:51:34.482Z,3.03
2023-04-08T14:54:02.149Z,2.40
2023-04-08T14:56:29.265Z,3.33
2023-04-08T14:58:56.499Z,3.43
2023-04-08T15:01:23.592Z,4.70
2023-04-08T15:03:50.785Z,3.33
2023-04-08T15:06:18.699Z,3.90
2023-04-08T15:08:45.946Z,4.43
2023-04-08T15:11:13.241Z,3.47
2023-04-08T15:13:40.644Z,4.13
2023-04-08T15:16:07.875Z,3.90
2023-04-08T15:18:36.241Z,3.70
2023-04-08T15:21:03.666Z,2.93
2023-04-08T15:23:31.553Z,2.97
2023-04-08T15:25:58.701Z,4.67
2023-04-08T15:28:27.379Z,4.70
2023-04-08T15:30:55.015Z,4.10
2023-04-08T15:33:22.177Z,4.37
2023-04-08T15:35:49.655Z,2.87
2023-04-08T15:38:17.595Z,3.67
2023-04-08T15:40:46.158Z,4.43
2023-04-08T15:43:15.071Z,3.17
2023-04-08T15:45:46.422Z,3.10
2023-04-08T15:48:13.728Z,3.37
2023-04-08T15:50:41.871Z,4.20
2023-04-08T15:53:09.135Z,4.10
2023-04-08T15:55:41.369Z,4.23
2023-04-08T15:58:08.554Z,3.90
2023-04-08T16:00:35.779Z,4.00
2023-04-08T16:03:03.118Z,3.30
2023-04-08T16:05:31.266Z,4.33
2023-04-08T16:07:58.396Z,5.27
2023-04-08T16:10:25.454Z,3.63
2023-04-08T16:12:53.214Z,5.13
2023-04-08T16:15:20.390Z,3.80
2023-04-08T16:17:54.643Z,6.10
2023-04-08T16:20:21.978Z,4.73
2023-04-08T16:22:50.210Z,4.23
2023-04-08T16:25:18.031Z,3.97
2023-04-08T16:27:45.130Z,5.13
2023-04-08T16:30:12.536Z,5.67
2023-04-08T16:32:40.117Z,6.07
2023-04-08T16:35:07.867Z,5.83
2023-04-08T16:37:35.158Z,5.30
2023-04-08T16:40:03.699Z,5.67
2023-04-08T16:42:31.300Z,3.27
2023-04-08T16:44:59.685Z,4.97
2023-04-08T16:47:27.624Z,3.83
2023-04-08T16:49:55.058Z,2.80
2023-04-08T16:52:22.195Z,5.27
2023-04-08T16:54:49.307Z,5.10
2023-04-08T16:57:16.744Z,3.40
2023-04-08T16:59:43.865Z,4.43
2023-04-08T17:02:11.126Z,3.10
2023-04-08T17:04:38.326Z,3.77
2023-04-08T17:07:05.448Z,3.90
2023-04-08T17:09:32.527Z,4.80
2023-04-08T17:11:59.688Z,4.40
2023-04-08T17:14:27.823Z,3.80
2023-04-08T17:16:55.835Z,5.03
2023-04-08T17:19:23.079Z,4.10
2023-04-08T17:21:50.395Z,3.77
2023-04-08T17:24:17.774Z,5.63
2023-04-08T17:26:44.891Z,5.30
2023-04-08T17:29:12.264Z,4.53
2023-04-08T17:31:40.294Z,4.40
2023-04-08T17:34:07.928Z,6.50
2023-04-08T17:36:35.412Z,5.43
2023-04-08T17:39:02.483Z,4.57
2023-04-08T17:41:39.025Z,5.87
2023-04-08T17:44:07.049Z,4.03
2023-04-08T17:46:34.267Z,6.17
2023-04-08T17:49:01.432Z,5.77
2023-04-08T17:51:30.298Z,4.70
2023-04-08T17:53:57.588Z,4.70
2023-04-08T17:56:24.865Z,5.10
2023-04-08T17:58:51.976Z,4.60
2023-04-08T18:01:19.630Z,4.40
2023-04-08T18:03:46.833Z,4.67
2023-04-08T18:06:13.990Z,4.53
2023-04-08T18:08:41.154Z,4.80
2023-04-08T18:11:08.328Z,5.60
2023-04-08T18:13:36.571Z,5.97
2023-04-08T18:16:03.829Z,6.10
2023-04-08T18:18:31.005Z,4.37
2023-04-08T18:20:58.498Z,5.60
2023-04-08T18:23:25.786Z,6.40
2023-04-08T18:25:52.884Z,4.93
2023-04-08T18:28:19.932Z,5.50
2023-04-08T18:30:52.605Z,4.33
2023-04-08T18:33:19.839Z,5.77
2023-04-08T18:35:47.061Z,4.50
2023-04-08T18:38:14.427Z,4.37
2023-04-08T18:40:45.678Z,5.50
2023-04-08T18:43:13.800Z,7.13
2023-04-08T18:45:41.441Z,5.87
2023-04-08T18:48:08.858Z,4.60
2023-04-08T18:50:35.956Z,4.70
2023-04-08T18:53:03.057Z,5.10
2023-04-08T18:55:30.429Z,6.57
2023-04-08T18:57:57.772Z,4.87
2023-04-08T19:00:25.073Z,5.50
2023-04-08T19:02:52.349Z,6.53
2023-04-08T19:05:19.611Z,6.53
2023-04-08T19:07:46.653Z,4.47
2023-04-08T19:10:13.714Z,5.40
2023-04-08T19:12:40.916Z,5.03
2023-04-08T19:15:08.368Z,6.60
2023-04-08T19:17:35.449Z,8.53
2023-04-08T19:20:03.492Z,6.10
2023-04-08T19:22:31.081Z,6.17
2023-04-08T19:24:58.168Z,5.53
2023-04-08T19:27:25.409Z,8.20
2023-04-08T19:29:52.494Z,3.63
2023-04-08T19:32:20.115Z,5.50
2023-04-08T19:34:47.367Z,4.87
2023-04-08T19:37:14.628Z,6.40
2023-04-08T19:39:41.711Z,5.13
2023-04-08T19:42:09.359Z,5.47
2023-04-08T19:44:36.424Z,5.93
2023-04-08T19:47:05.103Z,6.67
2023-04-08T19:49:32.205Z,6.13
2023-04-08T19:51:59.399Z,4.87
2023-04-08T19:54:26.628Z,4.90
2023-04-08T19:56:53.923Z,4.80
2023-04-08T19:59:24.228Z,6.23
2023-04-08T20:01:52.069Z,4.73
2023-04-08T20:04:19.419Z,6.07
2023-04-08T20:06:47.248Z,5.37
2023-04-08T20:09:14.345Z,4.97
2023-04-08T20:11:42.212Z,6.03
2023-04-08T20:14:09.312Z,5.37
2023-04-08T20:16:36.440Z,5.80
2023-04-08T20:19:03.583Z,5.37
2023-04-08T20:21:30.716Z,6.13
2023-04-08T20:23:57.856Z,6.60
2023-04-08T20:26:24.997Z,6.90
2023-04-08T20:28:52.217Z,6.07
2023-04-08T20:31:19.611Z,6.93
2023-04-08T20:33:46.816Z,7.77
2023-04-08T20:36:14.229Z,9.27
2023-04-08T20:38:42.624Z,7.03
2023-04-08T20:41:10.071Z,9.27
2023-04-08T20:43:37.242Z,7.17
2023-04-08T20:46:04.680Z,9.73
2023-04-08T20:48:33.212Z,9.30
2023-04-08T20:51:00.327Z,7.93
2023-04-08T20:53:27.618Z,11.37
2023-04-08T20:55:54.734Z,8.27
2023-04-08T20:58:21.824Z,10.37
2023-04-08T21:00:49.008Z,7.93
2023-04-08T21:03:17.203Z,9.20
2023-04-08T21:05:44.413Z,7.43
2023-04-08T21:08:11.637Z,8.83
2023-04-08T21:10:38.803Z,8.00
2023-04-08T21:13:06.020Z,9.57
2023-04-08T21:15:33.100Z,6.73
2023-04-08T21:18:00.262Z,9.00
2023-04-08T21:20:27.405Z,9.40
2023-04-08T21:22:54.595Z,7.60
2023-04-08T21:25:21.666Z,6.13
2023-04-08T21:27:48.801Z,5.73
2023-04-08T21:30:17.974Z,10.03
2023-04-08T21:32:45.280Z,7.60
2023-04-08T21:35:12.483Z,9.20
2023-04-08T21:37:39.538Z,7.30
2023-04-08T21:40:07.736Z,8.07
2023-04-08T21:42:34.819Z,7.87
2023-04-08T21:45:02.008Z,6.83
2023-04-08T21:47:29.134Z,8.03
2023-04-08T21:49:56.313Z,8.17
2023-04-08T21:52:23.404Z,6.77
2023-04-08T21:54:51.658Z,5.67
2023-04-08T21:57:18.990Z,9.37
2023-04-08T21:59:46.166Z,7.77
2023-04-08T22:02:13.414Z,4.83
2023-04-08T22:04:40.645Z,7.50
2023-04-08T22:07:07.916Z,6.50
2023-04-08T22:09:35.150Z,7.00
2023-04-08T22:12:03.162Z,5.10
2023-04-08T22:14:30.433Z,8.67
2023-04-08T22:16:57.683Z,8.97
2023-04-08T22:19:24.857Z,6.77
2023-04-08T22:21:52.032Z,8.03
2023-04-08T22:24:20.303Z,4.50
2023-04-08T22:26:47.472Z,7.50
2023-04-08T22:29:14.591Z,8.50
2023-04-08T22:31:41.725Z,6.10
2023-04-08T22:34:08.809Z,7.57
2023-04-08T22:36:35.918Z,9.00
2023-04-08T22:39:03.937Z,7.77
2023-04-08T22:41:31.195Z,9.10
2023-04-08T22:43:58.352Z,7.90
2023-04-08T22:46:25.493Z,6.63
2023-04-08T22:48:52.923Z,7.07
2023-04-08T22:51:20.923Z,6.17
2023-04-08T22:53:48.258Z,6.10
2023-04-08T22:56:15.395Z,9.17
2023-04-08T22:58:42.544Z,6.20
2023-04-08T23:01:17.297Z,7.60
2023-04-08T23:03:44.955Z,6.33
2023-04-08T23:06:12.198Z,7.40
2023-04-08T23:08:39.424Z,9.63
2023-04-08T23:11:07.138Z,6.60
2023-04-08T23:13:34.895Z,6.57
2023-04-08T23:16:02.477Z,6.87
2023-04-08T23:18:29.661Z,6.87
2023-04-08T23:20:58.100Z,9.53
2023-04-08T23:23:26.103Z,7.03
2023-04-08T23:25:55.767Z,7.00
2023-04-08T23:28:23.752Z,6.37
2023-04-08T23:30:51.053Z,7.50
2023-04-08T23:33:18.167Z,7.47
2023-04-08T23:35:45.495Z,6.83
2023-04-08T23:38:12.593Z,7.63
2023-04-08T23:40:39.831Z,7.77
2023-04-08T23:43:06.939Z,8.27
2023-04-08T23:45:34.072Z,6.97
2023-04-08T23:48:01.303Z,7.43
2023-04-08T23:50:28.408Z,5.77
2023-04-08T23:52:55.721Z,7.93
2023-04-08T23:55:22.768Z,6.53
2023-04-08T23:57:50.914Z,6.13
